createdAt,value
2022-11-24T00:03:12.686Z,90.09
2022-11-24T00:08:15.988Z,90.13
2022-11-24T00:13:19.092Z,90.02
2022-11-24T00:18:22.098Z,89.96
2022-11-24T00:23:25.307Z,89.94
2022-11-24T00:28:28.512Z,89.94
2022-11-24T00:33:31.823Z,89.60
2022-11-24T00:38:35.440Z,89.26
2022-11-24T00:43:38.751Z,88.98
2022-11-24T00:48:42.411Z,89.00
2022-11-24T00:53:45.678Z,88.97
2022-11-24T00:58:48.507Z,88.87
2022-11-24T01:03:51.891Z,88.88
2022-11-24T01:08:57.246Z,88.63
2022-11-24T01:14:00.251Z,88.79
2022-11-24T01:19:04.184Z,88.75
2022-11-24T01:24:07.871Z,88.29
2022-11-24T01:29:12.392Z,88.24
2022-11-24T01:34:15.746Z,88.29
2022-11-24T01:39:19.364Z,88.40
2022-11-24T01:44:25.895Z,88.21
2022-11-24T01:49:47.181Z,88.13
2022-11-24T01:54:55.495Z,88.10
2022-11-24T02:00:08.187Z,87.64
2022-11-24T02:05:26.913Z,87.61
2022-11-24T02:10:30.422Z,87.74
2022-11-24T02:15:35.849Z,87.82
2022-11-24T02:20:39.091Z,87.97
2022-11-24T02:25:56.736Z,87.90
2022-11-24T02:31:01.358Z,87.92
2022-11-24T02:36:04.687Z,88.00
2022-11-24T02:41:13.224Z,87.99
2022-11-24T02:46:16.895Z,88.06
2022-11-24T02:51:20.149Z,88.17
2022-11-24T02:56:23.358Z,88.22
2022-11-24T03:01:27.583Z,88.22
2022-11-24T03:06:30.797Z,88.39
2022-11-24T03:11:33.903Z,88.33
2022-11-24T03:16:37.010Z,88.26
2022-11-24T03:21:40.014Z,88.23
2022-11-24T03:26:43.220Z,88.33
2022-11-24T03:31:46.322Z,88.16
2022-11-24T03:36:49.737Z,88.23
2022-11-24T03:41:53.148Z,88.25
2022-11-24T03:46:56.253Z,88.12
2022-11-24T03:52:02.686Z,88.00
2022-11-24T03:57:09.840Z,87.94
2022-11-24T04:02:13.025Z,87.93
2022-11-24T04:07:16.874Z,87.80
2022-11-24T04:12:38.814Z,87.63
2022-11-24T04:17:42.438Z,87.55
2022-11-24T04:22:45.741Z,87.69
2022-11-24T04:27:53.763Z,87.77
2022-11-24T04:32:57.584Z,87.83
2022-11-24T04:38:03.455Z,88.00
2022-11-24T04:43:07.175Z,87.89
2022-11-24T04:48:10.586Z,87.80
2022-11-24T04:53:14.001Z,87.71
2022-11-24T04:58:17.206Z,87.62
2022-11-24T05:03:20.309Z,87.59
2022-11-24T05:08:23.627Z,87.62
2022-11-24T05:13:26.829Z,87.73
2022-11-24T05:18:29.934Z,87.60
2022-11-24T05:23:33.246Z,87.42
2022-11-24T05:28:36.558Z,87.56
2022-11-24T05:33:40.172Z,87.57
2022-11-24T05:38:43.279Z,87.71
2022-11-24T05:43:47.100Z,87.71
2022-11-24T05:48:50.371Z,87.63
2022-11-24T05:53:53.412Z,87.59
2022-11-24T05:58:56.517Z,87.57
2022-11-24T06:03:59.832Z,87.35
2022-11-24T06:09:03.247Z,87.43
2022-11-24T06:14:10.909Z,87.36
2022-11-24T06:19:15.189Z,87.11
2022-11-24T06:24:18.600Z,87.25
2022-11-24T06:29:21.755Z,87.32
2022-11-24T06:34:24.912Z,87.25
2022-11-24T06:39:28.237Z,87.39
2022-11-24T06:44:32.416Z,87.44
2022-11-24T06:49:35.867Z,87.26
2022-11-24T06:54:39.585Z,87.23
2022-11-24T06:59:42.907Z,87.28
2022-11-24T07:04:46.411Z,87.33
2022-11-24T07:09:49.618Z,87.24
2022-11-24T07:14:52.723Z,86.89
2022-11-24T07:19:56.035Z,86.65
2022-11-24T07:24:59.344Z,86.42
2022-11-24T07:30:02.556Z,86.28
2022-11-24T07:35:07.450Z,85.96
2022-11-24T07:40:12.188Z,86.02
2022-11-24T07:45:16.885Z,86.22
2022-11-24T07:50:20.400Z,86.21
2022-11-24T07:55:23.608Z,86.23
2022-11-24T08:00:28.043Z,85.89
2022-11-24T08:05:31.250Z,85.64
2022-11-24T08:10:34.458Z,85.55
2022-11-24T08:15:37.770Z,85.55
2022-11-24T08:20:41.079Z,85.15
2022-11-24T08:25:44.391Z,84.93
2022-11-24T08:30:47.699Z,85.05
2022-11-24T08:35:50.912Z,84.96
2022-11-24T08:40:54.322Z,84.85
2022-11-24T08:46:00.419Z,85.16
2022-11-24T08:51:12.575Z,85.14
2022-11-24T08:56:15.927Z,85.17
2022-11-24T09:01:19.407Z,85.29
2022-11-24T09:06:26.741Z,85.13
2022-11-24T09:11:31.040Z,85.20
2022-11-24T09:16:34.662Z,85.27
2022-11-24T09:21:39.233Z,85.06
2022-11-24T09:26:47.317Z,84.93
2022-11-24T09:31:51.176Z,85.05
2022-11-24T09:36:54.487Z,84.35
2022-11-24T09:42:06.907Z,83.94
2022-11-24T09:47:55.481Z,83.64
2022-11-24T09:53:26.645Z,83.11
2022-11-24T09:58:52.584Z,83.29
2022-11-24T10:04:01.122Z,83.35
2022-11-24T10:09:41.191Z,83.34
2022-11-24T10:14:55.557Z,83.40
2022-11-24T10:20:07.105Z,82.11
2022-11-24T10:25:26.659Z,82.28
2022-11-24T10:30:31.611Z,81.42
2022-11-24T10:35:47.298Z,82.89
2022-11-24T10:41:03.821Z,82.45
2022-11-24T10:46:23.356Z,81.88
2022-11-24T10:51:30.874Z,81.72
2022-11-24T10:56:42.259Z,81.95
2022-11-24T11:01:45.638Z,82.56
2022-11-24T11:06:49.046Z,82.99
2022-11-24T11:11:53.584Z,82.78
2022-11-24T11:16:58.225Z,83.06
2022-11-24T11:22:10.340Z,83.39
2022-11-24T11:27:20.510Z,83.78
2022-11-24T11:37:54.783Z,84.14
2022-11-24T11:43:15.192Z,83.70
2022-11-24T11:48:36.972Z,84.03
2022-11-24T11:54:08.049Z,84.31
2022-11-24T11:59:26.668Z,84.32
2022-11-24T12:04:36.237Z,84.53
2022-11-24T12:10:06.107Z,84.72
2022-11-24T12:15:20.830Z,84.87
2022-11-24T12:20:49.023Z,84.82
2022-11-24T12:26:20.290Z,84.58
2022-11-24T12:31:29.183Z,84.46
2022-11-24T12:37:08.483Z,84.30
2022-11-24T12:42:38.213Z,84.03
2022-11-24T12:48:04.772Z,83.83
2022-11-24T12:53:10.945Z,83.36
2022-11-24T12:58:37.587Z,83.30
2022-11-24T13:04:00.683Z,83.52
2022-11-24T13:09:12.874Z,83.72
2022-11-24T13:14:19.356Z,83.94
2022-11-24T13:19:29.242Z,84.06
2022-11-24T13:24:37.916Z,83.97
2022-11-24T13:29:43.849Z,84.00
2022-11-24T13:34:55.260Z,84.04
2022-11-24T13:40:01.357Z,84.17
2022-11-24T13:45:10.175Z,84.28
2022-11-24T13:50:23.423Z,84.32
2022-11-24T13:55:34.063Z,84.54
2022-11-24T14:01:04.025Z,84.57
2022-11-24T14:06:18.288Z,84.75
2022-11-24T14:11:22.270Z,84.69
2022-11-24T14:16:26.293Z,84.93
2022-11-24T14:21:44.810Z,85.25
2022-11-24T14:26:48.263Z,85.76
2022-11-24T14:31:54.508Z,85.78
2022-11-24T14:36:59.048Z,85.84
2022-11-24T14:42:06.681Z,85.77
2022-11-24T14:47:36.744Z,85.81
2022-11-24T14:52:56.282Z,85.85
2022-11-24T14:58:00.513Z,85.98
2022-11-24T15:03:17.854Z,86.09
2022-11-24T15:08:22.647Z,86.05
2022-11-24T15:13:27.031Z,85.86
2022-11-24T15:18:49.186Z,85.92
2022-11-24T15:24:25.064Z,85.89
2022-11-24T15:29:28.470Z,85.93
2022-11-24T15:34:31.575Z,86.05
2022-11-24T15:39:35.194Z,85.99
2022-11-24T15:44:38.408Z,86.02
2022-11-24T15:49:41.610Z,86.08
2022-11-24T15:54:53.316Z,86.01
2022-11-24T15:59:56.628Z,85.98
2022-11-24T16:05:00.347Z,85.98
2022-11-24T16:10:08.309Z,85.88
2022-11-24T16:15:13.626Z,85.70
2022-11-24T16:20:16.933Z,85.65
2022-11-24T16:25:20.347Z,85.83
2022-11-24T16:30:23.557Z,85.90
2022-11-24T16:35:26.863Z,86.20
2022-11-24T16:40:30.277Z,86.43
2022-11-24T16:45:38.456Z,86.58
2022-11-24T16:50:44.988Z,86.77
2022-11-24T16:55:56.898Z,86.76
2022-11-24T17:01:12.149Z,86.66
2022-11-24T17:06:17.319Z,86.90
2022-11-24T17:11:23.271Z,87.00
2022-11-24T17:16:28.090Z,87.10
2022-11-24T17:21:32.598Z,87.09
2022-11-24T17:26:36.116Z,87.22
2022-11-24T17:31:40.486Z,87.22
2022-11-24T17:36:46.218Z,87.22
2022-11-24T17:41:50.352Z,87.10
2022-11-24T17:46:54.067Z,87.09
2022-11-24T17:51:57.989Z,86.88
2022-11-24T17:57:01.716Z,86.70
2022-11-24T18:02:06.622Z,86.58
2022-11-24T18:07:10.157Z,86.52
2022-11-24T18:12:13.690Z,86.52
2022-11-24T18:17:17.308Z,86.42
2022-11-24T18:22:36.682Z,86.44
2022-11-24T18:27:44.201Z,86.47
2022-11-24T18:32:47.825Z,86.50
2022-11-24T18:37:51.926Z,86.44
2022-11-24T18:42:55.629Z,86.37
2022-11-24T18:48:00.021Z,86.40
2022-11-24T18:53:03.519Z,86.48
2022-11-24T18:58:06.937Z,86.66
2022-11-24T19:03:10.450Z,86.78
2022-11-24T19:08:13.966Z,86.79
2022-11-24T19:13:17.479Z,86.79
2022-11-24T19:18:21.610Z,86.84
2022-11-24T19:23:25.020Z,86.91
2022-11-24T19:28:28.639Z,86.93
2022-11-24T19:33:33.077Z,86.77
2022-11-24T19:38:37.326Z,86.61
2022-11-24T19:43:41.955Z,86.38
2022-11-24T19:48:50.341Z,86.31
2022-11-24T19:53:54.575Z,86.29
2022-11-24T19:58:58.130Z,86.33
2022-11-24T20:04:13.983Z,86.39
2022-11-24T20:09:18.241Z,86.49
2022-11-24T20:14:22.395Z,86.54
2022-11-24T20:19:26.830Z,86.50
2022-11-24T20:24:30.447Z,86.52
2022-11-24T20:29:34.269Z,86.56
2022-11-24T20:34:38.091Z,86.61
2022-11-24T20:39:41.912Z,86.66
2022-11-24T20:44:45.534Z,86.77
2022-11-24T20:49:49.454Z,86.76
2022-11-24T20:54:52.765Z,86.64
2022-11-24T20:59:55.871Z,86.70
2022-11-24T21:04:59.182Z,86.55
2022-11-24T21:10:03.006Z,86.38
2022-11-24T21:15:09.873Z,86.32
2022-11-24T21:20:13.822Z,86.34
2022-11-24T21:25:17.337Z,86.42
2022-11-24T21:30:21.061Z,86.49
2022-11-24T21:35:24.318Z,86.60
2022-11-24T21:40:27.577Z,86.73
2022-11-24T21:45:30.805Z,86.80
2022-11-24T21:50:34.199Z,86.88
2022-11-24T21:55:37.300Z,86.95
2022-11-24T22:00:40.860Z,86.93
2022-11-24T22:05:56.933Z,86.87
2022-11-24T22:11:21.237Z,86.84
2022-11-24T22:16:26.042Z,86.73
2022-11-24T22:21:33.693Z,86.60
2022-11-24T22:26:37.720Z,86.41
2022-11-24T22:31:41.695Z,86.36
2022-11-24T22:36:44.848Z,86.52
2022-11-24T22:41:48.158Z,86.48
2022-11-24T22:46:51.777Z,86.49
2022-11-24T22:51:54.984Z,86.61
2022-11-24T22:56:58.194Z,86.55
2022-11-24T23:02:01.298Z,86.62
2022-11-24T23:07:04.916Z,86.66
2022-11-24T23:12:08.943Z,86.65
2022-11-24T23:17:12.047Z,86.72
2022-11-24T23:22:15.257Z,86.62
2022-11-24T23:27:18.872Z,86.55
2022-11-24T23:32:22.184Z,86.53
2022-11-24T23:37:39.361Z,86.39
2022-11-24T23:42:48.875Z,86.37
2022-11-24T23:47:53.721Z,86.41
2022-11-24T23:52:56.931Z,86.56
2022-11-24T23:58:00.340Z,86.78
